createdAt,value
2022-08-23T00:00:22.605Z,13.86
2022-08-23T00:01:23.944Z,13.81
2022-08-23T00:02:23.599Z,13.83
2022-08-23T00:03:22.618Z,13.86
2022-08-23T00:04:22.552Z,13.81
2022-08-23T00:05:23.573Z,13.78
2022-08-23T00:06:22.525Z,13.77
2022-08-23T00:07:22.518Z,13.74
2022-08-23T00:08:22.508Z,13.71
2022-08-23T00:09:22.487Z,13.74
2022-08-23T00:10:22.479Z,13.77
2022-08-23T00:11:22.467Z,13.77
2022-08-23T00:12:22.452Z,13.75
2022-08-23T00:13:22.444Z,13.72
2022-08-23T00:14:22.426Z,13.67
2022-08-23T00:15:22.411Z,13.63
2022-08-23T00:16:22.406Z,13.59
2022-08-23T00:17:33.617Z,13.56
2022-08-23T00:18:23.404Z,13.59
2022-08-23T00:19:22.362Z,13.57
2022-08-23T00:20:22.348Z,13.57
2022-08-23T00:21:22.337Z,13.56
2022-08-23T00:22:22.323Z,13.56
2022-08-23T00:23:22.314Z,13.54
2022-08-23T00:24:22.301Z,13.53
2022-08-23T00:25:22.285Z,13.53
2022-08-23T00:26:22.275Z,13.54
2022-08-23T00:27:22.260Z,13.56
2022-08-23T00:28:22.258Z,13.53
2022-08-23T00:29:22.238Z,13.53
2022-08-23T00:30:22.220Z,13.54
2022-08-23T00:31:22.212Z,13.53
2022-08-23T00:32:22.195Z,13.53
2022-08-23T00:33:22.186Z,13.54
2022-08-23T00:34:22.168Z,13.54
2022-08-23T00:35:26.678Z,13.57
2022-08-23T00:36:22.142Z,13.57
2022-08-23T00:37:22.132Z,13.56
2022-08-23T00:38:33.988Z,13.54
2022-08-23T00:39:23.137Z,13.52
2022-08-23T00:40:22.174Z,13.49
2022-08-23T00:41:22.079Z,13.49
2022-08-23T00:42:22.066Z,13.47
2022-08-23T00:43:22.058Z,13.42
2022-08-23T00:44:22.044Z,13.41
2022-08-23T00:45:22.028Z,13.39
2022-08-23T00:46:22.015Z,13.37
2022-08-23T00:47:22.008Z,13.35
2022-08-23T00:48:22.008Z,13.37
2022-08-23T00:49:21.979Z,13.35
2022-08-23T00:50:24.162Z,13.37
2022-08-23T00:51:21.954Z,13.38
2022-08-23T00:52:21.947Z,13.38
2022-08-23T00:53:21.934Z,13.35
2022-08-23T00:54:21.915Z,13.35
2022-08-23T00:55:21.902Z,13.38
2022-08-23T00:56:21.894Z,13.35
2022-08-23T00:57:21.877Z,13.37
2022-08-23T00:58:21.865Z,13.37
2022-08-23T00:59:21.854Z,13.38
2022-08-23T01:00:21.838Z,13.35
2022-08-23T01:01:21.914Z,13.33
2022-08-23T01:02:21.816Z,13.33
2022-08-23T01:03:21.801Z,13.35
2022-08-23T01:04:21.792Z,13.31
2022-08-23T01:05:21.778Z,13.27
2022-08-23T01:06:21.764Z,13.25
2022-08-23T01:07:21.750Z,13.25
2022-08-23T01:08:21.736Z,13.25
2022-08-23T01:09:21.723Z,13.22
2022-08-23T01:10:21.711Z,13.22
2022-08-23T01:11:21.699Z,13.22
2022-08-23T01:12:32.698Z,13.18
2022-08-23T01:13:22.701Z,13.15
2022-08-23T01:14:21.659Z,13.13
2022-08-23T01:15:21.646Z,13.16
2022-08-23T01:16:21.639Z,13.19
2022-08-23T01:17:21.621Z,13.19
2022-08-23T01:18:21.613Z,13.18
2022-08-23T01:19:21.598Z,13.15
2022-08-23T01:20:21.584Z,13.13
2022-08-23T01:21:21.574Z,13.13
2022-08-23T01:22:21.557Z,13.09
2022-08-23T01:23:21.548Z,13.12
2022-08-23T01:24:59.725Z,13.05
2022-08-23T01:25:22.551Z,13.04
2022-08-23T01:26:21.699Z,13.08
2022-08-23T01:27:21.492Z,13.08
2022-08-23T01:28:21.479Z,13.09
2022-08-23T01:29:21.469Z,13.11
2022-08-23T01:30:21.458Z,13.11
2022-08-23T01:31:21.441Z,13.11
2022-08-23T01:32:21.431Z,13.12
2022-08-23T01:33:21.421Z,13.09
2022-08-23T01:34:21.404Z,13.08
2022-08-23T01:36:21.378Z,13.03
2022-08-23T01:37:21.361Z,13.04
2022-08-23T01:38:21.349Z,13.05
2022-08-23T01:39:21.340Z,13.05
2022-08-23T01:40:21.445Z,13.04
2022-08-23T01:41:21.324Z,13.04
2022-08-23T01:42:21.299Z,13.01
2022-08-23T01:43:21.288Z,12.98
2022-08-23T01:44:21.279Z,12.94
2022-08-23T01:45:21.260Z,12.90
2022-08-23T01:46:21.250Z,12.85
2022-08-23T01:47:21.237Z,12.82
2022-08-23T01:48:21.224Z,12.76
2022-08-23T01:49:21.209Z,12.75
2022-08-23T01:50:21.197Z,12.72
2022-08-23T01:51:21.186Z,12.68
2022-08-23T01:52:21.173Z,12.68
2022-08-23T01:53:21.157Z,12.64
2022-08-23T01:54:21.144Z,12.65
2022-08-23T01:55:21.131Z,12.64
2022-08-23T01:56:28.081Z,12.64
2022-08-23T01:57:21.109Z,12.65
2022-08-23T01:58:21.100Z,12.65
2022-08-23T01:59:21.078Z,12.67
2022-08-23T02:00:21.068Z,12.65
2022-08-23T02:01:21.126Z,12.67
2022-08-23T02:02:21.045Z,12.65
2022-08-23T02:03:21.030Z,12.72
2022-08-23T02:04:21.020Z,12.72
2022-08-23T02:05:21.008Z,12.70
2022-08-23T02:06:20.988Z,12.70
2022-08-23T02:07:20.980Z,12.70
2022-08-23T02:08:20.962Z,12.67
2022-08-23T02:09:20.957Z,12.64
2022-08-23T02:10:20.939Z,12.62
2022-08-23T02:11:20.925Z,12.65
2022-08-23T02:12:20.908Z,12.67
2022-08-23T02:13:20.899Z,12.67
2022-08-23T02:14:20.886Z,12.70
2022-08-23T02:15:20.873Z,12.72
2022-08-23T02:16:20.861Z,12.72
2022-08-23T02:17:20.851Z,12.73
2022-08-23T02:18:20.831Z,12.70
2022-08-23T02:19:20.823Z,12.72
2022-08-23T02:20:20.811Z,12.70
2022-08-23T02:21:20.800Z,12.68
2022-08-23T02:22:20.784Z,12.70
2022-08-23T02:23:20.769Z,12.65
2022-08-23T02:24:20.757Z,12.67
2022-08-23T02:25:20.745Z,12.65
2022-08-23T02:26:20.733Z,12.65
2022-08-23T02:27:21.749Z,12.64
2022-08-23T02:28:20.701Z,12.62
2022-08-23T02:29:20.689Z,12.61
2022-08-23T02:30:20.681Z,12.61
2022-08-23T02:31:20.667Z,12.54
2022-08-23T02:32:20.650Z,12.53
2022-08-23T02:33:20.640Z,12.53
2022-08-23T02:34:20.627Z,12.49
2022-08-23T02:35:20.610Z,12.50
2022-08-23T02:37:20.591Z,12.55
2022-08-23T02:38:20.578Z,12.57
2022-08-23T02:39:20.565Z,12.58
2022-08-23T02:40:20.565Z,12.57
2022-08-23T02:41:20.538Z,12.55
2022-08-23T02:42:20.520Z,12.53
2022-08-23T02:43:20.508Z,12.54
2022-08-23T02:44:20.499Z,12.47
2022-08-23T02:45:20.485Z,12.47
2022-08-23T02:46:20.470Z,12.47
2022-08-23T02:47:20.456Z,12.49
2022-08-23T02:48:20.448Z,12.45
2022-08-23T02:49:20.428Z,12.39
2022-08-23T02:50:20.415Z,12.37
2022-08-23T02:51:20.405Z,12.32
2022-08-23T02:52:20.387Z,12.32
2022-08-23T02:53:20.380Z,12.32
2022-08-23T02:54:20.365Z,12.29
2022-08-23T02:55:20.358Z,12.27
2022-08-23T02:56:21.772Z,12.22
2022-08-23T02:57:20.327Z,12.27
2022-08-23T02:58:20.314Z,12.24
2022-08-23T02:59:20.302Z,12.24
2022-08-23T03:00:20.289Z,12.21
2022-08-23T03:01:20.280Z,12.21
2022-08-23T03:02:20.294Z,12.18
2022-08-23T03:03:20.246Z,12.15
2022-08-23T03:04:20.235Z,12.18
2022-08-23T03:05:20.219Z,12.18
2022-08-23T03:06:24.683Z,12.20
2022-08-23T03:07:20.197Z,12.20
2022-08-23T03:08:20.181Z,12.20
2022-08-23T03:09:20.170Z,12.18
2022-08-23T03:10:20.155Z,12.20
2022-08-23T03:11:20.143Z,12.24
2022-08-23T03:12:20.133Z,12.21
2022-08-23T03:13:20.117Z,12.18
2022-08-23T03:14:20.105Z,12.17
2022-08-23T03:15:20.092Z,12.12
2022-08-23T03:16:20.078Z,12.09
2022-08-23T03:17:20.068Z,12.07
2022-08-23T03:18:20.053Z,12.12
2022-08-23T03:19:20.041Z,12.15
2022-08-23T03:20:20.025Z,12.13
2022-08-23T03:21:20.015Z,12.13
2022-08-23T03:22:20.004Z,12.12
2022-08-23T03:23:19.986Z,12.12
2022-08-23T03:24:19.975Z,12.07
2022-08-23T03:25:19.963Z,12.04
2022-08-23T03:26:19.950Z,12.02
2022-08-23T03:27:19.937Z,11.99
2022-08-23T03:28:19.922Z,11.99
2022-08-23T03:29:19.909Z,11.95
2022-08-23T03:30:20.237Z,11.95
2022-08-23T03:31:19.882Z,11.99
2022-08-23T03:32:19.869Z,12.00
2022-08-23T03:33:19.854Z,12.00
2022-08-23T03:34:19.846Z,12.03
2022-08-23T03:35:19.835Z,12.03
2022-08-23T03:36:19.819Z,12.03
2022-08-23T03:37:20.835Z,12.03
2022-08-23T03:38:19.794Z,12.03
2022-08-23T03:39:19.778Z,12.03
2022-08-23T03:40:19.793Z,12.02
2022-08-23T03:41:19.753Z,12.00
2022-08-23T03:42:19.741Z,12.04
2022-08-23T03:43:19.729Z,12.03
2022-08-23T03:44:19.719Z,12.02
2022-08-23T03:45:19.700Z,12.00
2022-08-23T03:46:19.688Z,11.99
2022-08-23T03:47:19.677Z,11.99
2022-08-23T03:48:19.662Z,11.97
2022-08-23T03:49:19.649Z,11.95
2022-08-23T03:50:19.639Z,11.94
2022-08-23T03:51:19.622Z,11.94
2022-08-23T03:52:19.612Z,11.94
2022-08-23T03:53:19.597Z,11.94
2022-08-23T03:54:19.581Z,11.88
2022-08-23T03:55:19.568Z,11.86
2022-08-23T03:56:19.555Z,11.84
2022-08-23T03:57:19.545Z,11.84
2022-08-23T03:58:19.534Z,11.83
2022-08-23T03:59:19.519Z,11.81
2022-08-23T04:00:20.511Z,11.80
2022-08-23T04:01:19.544Z,11.80
2022-08-23T04:02:19.485Z,11.80
2022-08-23T04:03:19.470Z,11.80
2022-08-23T04:04:19.449Z,11.78
2022-08-23T04:05:19.440Z,11.77
2022-08-23T04:06:19.428Z,11.78
2022-08-23T04:07:19.420Z,11.77
2022-08-23T04:08:33.510Z,11.73
2022-08-23T04:09:20.415Z,11.72
2022-08-23T04:10:19.373Z,11.70
2022-08-23T04:11:19.363Z,11.69
2022-08-23T04:12:19.347Z,11.68
2022-08-23T04:13:19.338Z,11.68
2022-08-23T04:14:19.319Z,11.68
2022-08-23T04:15:19.307Z,11.68
2022-08-23T04:16:19.293Z,11.69
2022-08-23T04:17:19.280Z,11.65
2022-08-23T04:18:19.271Z,11.63
2022-08-23T04:19:19.257Z,11.66
2022-08-23T04:20:19.242Z,11.68
2022-08-23T04:21:19.230Z,11.68
2022-08-23T04:22:19.216Z,11.68
2022-08-23T04:23:19.203Z,11.68
2022-08-23T04:24:19.190Z,11.70
2022-08-23T04:25:33.863Z,11.70
2022-08-23T04:26:20.195Z,11.70
2022-08-23T04:27:19.147Z,11.69
2022-08-23T04:28:19.136Z,11.69
2022-08-23T04:29:24.917Z,11.69
2022-08-23T04:30:20.141Z,11.69
2022-08-23T04:31:19.102Z,11.68
2022-08-23T04:32:26.510Z,11.68
2022-08-23T04:33:21.328Z,11.65
2022-08-23T04:34:20.199Z,11.66
2022-08-23T04:35:19.042Z,11.63
2022-08-23T04:36:19.030Z,11.66
2022-08-23T04:37:19.020Z,11.66
2022-08-23T04:38:25.151Z,11.68
2022-08-23T04:39:20.022Z,11.68
2022-08-23T04:40:19.054Z,11.70
2022-08-23T04:41:18.968Z,11.72
2022-08-23T04:42:18.955Z,11.77
2022-08-23T04:43:18.945Z,11.81
2022-08-23T04:44:18.930Z,11.81
2022-08-23T04:45:18.910Z,11.83
2022-08-23T04:46:18.906Z,11.83
2022-08-23T04:47:18.885Z,11.84
2022-08-23T04:48:18.873Z,11.83
2022-08-23T04:49:18.858Z,11.84
2022-08-23T04:50:18.845Z,11.86
2022-08-23T04:51:18.840Z,11.90
2022-08-23T04:52:19.683Z,11.90
2022-08-23T04:53:18.812Z,11.88
2022-08-23T04:54:21.360Z,11.91
2022-08-23T04:55:18.781Z,11.88
2022-08-23T04:56:18.766Z,11.88
2022-08-23T04:57:18.749Z,11.87
2022-08-23T04:58:18.744Z,11.83
2022-08-23T04:59:18.733Z,11.84
2022-08-23T05:00:18.727Z,11.86
2022-08-23T05:01:18.733Z,11.84
2022-08-23T05:02:18.689Z,11.83
2022-08-23T05:03:18.676Z,11.83
2022-08-23T05:04:18.667Z,11.84
2022-08-23T05:05:18.651Z,11.86
2022-08-23T05:06:18.638Z,11.87
2022-08-23T05:07:18.627Z,11.84
2022-08-23T05:08:18.611Z,11.83
2022-08-23T05:09:20.807Z,11.84
2022-08-23T05:10:18.586Z,11.87
2022-08-23T05:11:18.571Z,11.87
2022-08-23T05:12:18.559Z,11.90
2022-08-23T05:13:18.545Z,11.91
2022-08-23T05:14:18.532Z,11.94
2022-08-23T05:15:18.524Z,11.99
2022-08-23T05:16:18.507Z,12.03
2022-08-23T05:17:18.495Z,12.07
2022-08-23T05:18:18.483Z,12.12
2022-08-23T05:19:18.465Z,12.18
2022-08-23T05:20:18.453Z,12.22
2022-08-23T05:21:18.460Z,12.25
2022-08-23T05:22:18.428Z,12.29
2022-08-23T05:23:18.415Z,12.31
2022-08-23T05:24:18.402Z,12.32
2022-08-23T05:25:18.392Z,12.46
2022-08-23T05:26:18.378Z,12.65
2022-08-23T05:27:18.363Z,12.82
2022-08-23T05:28:18.351Z,12.97
2022-08-23T05:29:18.336Z,13.18
2022-08-23T05:30:18.322Z,13.42
2022-08-23T05:31:18.310Z,13.70
2022-08-23T05:32:18.301Z,13.93
2022-08-23T05:33:18.287Z,14.25
2022-08-23T05:34:20.250Z,14.58
2022-08-23T05:35:18.260Z,14.96
2022-08-23T05:36:18.243Z,15.27
2022-08-23T05:37:18.232Z,15.64
2022-08-23T05:38:20.806Z,15.94
2022-08-23T05:39:28.716Z,16.26
2022-08-23T05:40:19.271Z,16.69
2022-08-23T05:41:18.178Z,17.11
2022-08-23T05:42:18.164Z,17.56
2022-08-23T05:43:18.151Z,18.04
2022-08-23T05:44:18.137Z,18.47
2022-08-23T05:45:21.750Z,18.75
2022-08-23T05:46:19.814Z,19.08
2022-08-23T05:47:18.109Z,19.40
2022-08-23T05:48:19.114Z,19.77
2022-08-23T05:49:21.074Z,20.16
2022-08-23T05:50:18.066Z,20.31
2022-08-23T05:51:18.058Z,20.56
2022-08-23T05:52:18.033Z,20.81
2022-08-23T05:53:18.021Z,21.22
2022-08-23T05:54:18.011Z,21.60
2022-08-23T05:55:17.998Z,21.82
2022-08-23T05:56:17.982Z,21.76
2022-08-23T05:57:17.966Z,21.17
2022-08-23T05:58:17.959Z,20.24
2022-08-23T05:59:17.950Z,19.55
2022-08-23T06:00:17.928Z,18.86
2022-08-23T06:01:17.950Z,18.19
2022-08-23T06:02:17.907Z,17.80
2022-08-23T06:03:17.887Z,17.36
2022-08-23T06:04:17.880Z,17.29
2022-08-23T06:05:17.867Z,17.36
2022-08-23T06:06:17.849Z,17.74
2022-08-23T06:07:17.845Z,18.38
2022-08-23T06:08:17.833Z,18.95
2022-08-23T06:09:17.816Z,19.49
2022-08-23T06:10:17.801Z,20.31
2022-08-23T06:11:17.794Z,21.15
2022-08-23T06:12:17.772Z,21.54
2022-08-23T06:13:17.763Z,21.88
2022-08-23T06:14:17.804Z,22.45
2022-08-23T06:15:17.738Z,22.91
2022-08-23T06:16:17.721Z,23.40
2022-08-23T06:17:17.708Z,23.92
2022-08-23T06:18:17.698Z,24.06
2022-08-23T06:19:17.684Z,24.32
2022-08-23T06:20:17.706Z,23.91
2022-08-23T06:21:17.668Z,24.11
2022-08-23T06:22:17.643Z,24.20
2022-08-23T06:23:17.630Z,24.23
2022-08-23T06:24:17.624Z,24.43
2022-08-23T06:25:17.615Z,24.13
2022-08-23T06:26:17.597Z,24.08
2022-08-23T06:27:17.587Z,24.18
2022-08-23T06:28:17.571Z,24.51
2022-08-23T06:29:17.666Z,24.98
2022-08-23T06:30:17.540Z,25.11
2022-08-23T06:31:17.595Z,25.32
2022-08-23T06:32:17.587Z,25.88
2022-08-23T06:33:17.627Z,26.10
2022-08-23T06:34:17.490Z,25.93
2022-08-23T06:35:36.102Z,26.36
2022-08-23T06:36:18.496Z,26.60
2022-08-23T06:37:17.439Z,26.99
2022-08-23T06:38:17.424Z,27.26
2022-08-23T06:39:17.422Z,27.65
2022-08-23T06:40:17.882Z,27.55
2022-08-23T06:41:17.399Z,27.42
2022-08-23T06:42:37.413Z,27.40
2022-08-23T06:43:18.403Z,27.33
2022-08-23T06:44:17.357Z,27.26
2022-08-23T06:45:17.347Z,27.65
2022-08-23T06:46:17.385Z,27.96
2022-08-23T06:47:17.323Z,28.17
2022-08-23T06:48:18.952Z,28.25
2022-08-23T06:49:17.284Z,28.44
2022-08-23T06:50:17.276Z,28.49
2022-08-23T06:51:17.269Z,28.35
2022-08-23T06:52:17.244Z,28.56
2022-08-23T06:53:17.238Z,28.81
2022-08-23T06:54:17.230Z,28.82
2022-08-23T06:55:17.208Z,29.10
2022-08-23T06:56:17.203Z,29.38
2022-08-23T06:57:17.184Z,29.63
2022-08-23T06:58:17.197Z,29.88
2022-08-23T06:59:17.170Z,30.21
2022-08-23T07:00:21.932Z,30.44
2022-08-23T07:01:42.028Z,30.62
2022-08-23T07:02:18.319Z,30.78
2022-08-23T07:03:17.108Z,30.97
2022-08-23T07:04:17.125Z,31.14
2022-08-23T07:05:17.076Z,31.15
2022-08-23T07:06:17.076Z,31.21
2022-08-23T07:07:17.060Z,31.24
2022-08-23T07:08:17.036Z,31.28
2022-08-23T07:09:17.035Z,31.24
2022-08-23T07:10:17.020Z,31.27
2022-08-23T07:11:17.007Z,31.22
2022-08-23T07:12:16.992Z,31.33
2022-08-23T07:13:18.699Z,31.42
2022-08-23T07:14:16.963Z,31.47
2022-08-23T07:15:16.948Z,31.55
2022-08-23T07:16:17.022Z,31.71
2022-08-23T07:17:16.927Z,31.77
2022-08-23T07:18:16.919Z,31.92
2022-08-23T07:19:16.896Z,32.01
2022-08-23T07:20:16.881Z,31.92
2022-08-23T07:21:16.874Z,31.92
2022-08-23T07:22:16.855Z,32.04
2022-08-23T07:23:16.855Z,32.23
2022-08-23T07:24:16.848Z,32.00
2022-08-23T07:25:18.144Z,31.92
2022-08-23T07:26:16.816Z,31.89
2022-08-23T07:27:16.801Z,32.03
2022-08-23T07:28:16.782Z,32.19
2022-08-23T07:29:16.781Z,32.12
2022-08-23T07:30:16.767Z,32.15
2022-08-23T07:31:16.750Z,32.03
2022-08-23T07:32:18.675Z,31.99
2022-08-23T07:33:16.711Z,31.89
2022-08-23T07:34:16.708Z,32.00
2022-08-23T07:35:16.694Z,31.65
2022-08-23T07:36:16.686Z,31.74
2022-08-23T07:37:16.676Z,32.04
2022-08-23T07:38:16.652Z,32.23
2022-08-23T07:39:16.653Z,32.29
2022-08-23T07:40:20.654Z,32.33
2022-08-23T07:41:16.618Z,32.36
2022-08-23T07:42:23.602Z,32.33
2022-08-23T07:43:17.627Z,32.37
2022-08-23T07:44:16.586Z,32.41
2022-08-23T07:45:16.568Z,32.41
2022-08-23T07:46:16.581Z,32.26
2022-08-23T07:47:16.546Z,31.99
2022-08-23T07:48:31.772Z,31.44
2022-08-23T07:49:17.547Z,30.69
2022-08-23T07:50:16.500Z,29.88
2022-08-23T07:51:16.490Z,29.04
2022-08-23T07:52:16.474Z,28.23
2022-08-23T07:53:16.458Z,27.49
2022-08-23T07:54:16.450Z,26.88
2022-08-23T07:55:16.429Z,26.28
2022-08-23T07:56:16.427Z,25.69
2022-08-23T07:57:16.410Z,25.17
2022-08-23T07:58:16.395Z,24.70
2022-08-23T07:59:16.387Z,24.13
2022-08-23T08:00:16.369Z,23.77
2022-08-23T08:01:16.627Z,23.50
2022-08-23T08:02:16.432Z,23.27
2022-08-23T08:03:16.431Z,23.12
2022-08-23T08:04:16.324Z,22.91
2022-08-23T08:05:20.974Z,22.72
2022-08-23T08:06:16.299Z,22.60
2022-08-23T08:07:21.128Z,22.48
2022-08-23T08:08:16.727Z,22.41
2022-08-23T08:09:16.267Z,22.32
2022-08-23T08:10:16.244Z,22.25
2022-08-23T08:11:16.232Z,22.26
2022-08-23T08:12:16.223Z,22.30
2022-08-23T08:13:16.206Z,22.36
2022-08-23T08:14:16.197Z,22.26
2022-08-23T08:15:16.180Z,22.26
2022-08-23T08:16:16.211Z,22.20
2022-08-23T08:17:16.154Z,22.10
2022-08-23T08:18:16.147Z,22.08
2022-08-23T08:19:16.136Z,22.06
2022-08-23T08:20:16.119Z,22.04
2022-08-23T08:21:16.107Z,22.00
2022-08-23T08:22:16.096Z,21.92
2022-08-23T08:23:16.083Z,21.80
2022-08-23T08:24:16.307Z,21.76
2022-08-23T08:25:16.063Z,21.70
2022-08-23T08:26:16.040Z,21.62
2022-08-23T08:27:16.037Z,21.55
2022-08-23T08:28:16.298Z,21.54
2022-08-23T08:29:16.016Z,21.61
2022-08-23T08:30:16.000Z,21.64
2022-08-23T08:31:16.058Z,21.67
2022-08-23T08:32:15.976Z,21.73
2022-08-23T08:33:16.785Z,21.70
2022-08-23T08:34:15.954Z,21.73
2022-08-23T08:35:15.939Z,21.79
2022-08-23T08:36:15.923Z,21.79
2022-08-23T08:37:15.918Z,21.77
2022-08-23T08:38:15.901Z,21.79
2022-08-23T08:39:15.891Z,21.88
2022-08-23T08:40:15.940Z,21.89
2022-08-23T08:41:15.875Z,21.95
2022-08-23T08:42:15.849Z,22.02
2022-08-23T08:43:15.851Z,22.18
2022-08-23T08:44:16.372Z,22.36
2022-08-23T08:45:15.812Z,22.45
2022-08-23T08:46:15.858Z,22.50
2022-08-23T08:47:15.791Z,22.47
2022-08-23T08:48:15.781Z,22.51
2022-08-23T08:49:15.766Z,22.53
2022-08-23T08:50:15.753Z,22.65
2022-08-23T08:51:15.745Z,22.65
2022-08-23T08:52:15.731Z,22.70
2022-08-23T08:53:15.722Z,22.78
2022-08-23T08:54:15.709Z,22.85
2022-08-23T08:55:15.694Z,22.81
2022-08-23T08:56:16.585Z,22.76
2022-08-23T08:57:15.665Z,22.76
2022-08-23T08:58:15.654Z,22.69
2022-08-23T08:59:15.638Z,22.57
2022-08-23T09:00:15.780Z,22.60
2022-08-23T09:01:15.649Z,22.54
2022-08-23T09:02:20.095Z,22.45
2022-08-23T09:03:16.649Z,22.47
2022-08-23T09:04:15.586Z,22.43
2022-08-23T09:05:15.570Z,22.43
2022-08-23T09:06:15.554Z,22.44
2022-08-23T09:07:15.538Z,22.44
2022-08-23T09:08:15.533Z,22.41
2022-08-23T09:09:15.525Z,22.38
2022-08-23T09:10:15.510Z,22.41
2022-08-23T09:11:15.498Z,22.51
2022-08-23T09:12:16.079Z,22.59
2022-08-23T09:13:15.472Z,22.63
2022-08-23T09:14:15.457Z,22.68
2022-08-23T09:15:15.453Z,22.70
2022-08-23T09:16:15.987Z,22.68
2022-08-23T09:17:15.420Z,22.69
2022-08-23T09:18:15.411Z,22.75
2022-08-23T09:19:15.401Z,22.73
2022-08-23T09:20:15.385Z,22.68
2022-08-23T09:21:15.372Z,22.70
2022-08-23T09:22:15.364Z,22.70
2022-08-23T09:23:15.347Z,22.72
2022-08-23T09:24:15.342Z,22.80
2022-08-23T09:25:15.327Z,22.84
2022-08-23T09:26:15.311Z,22.87
2022-08-23T09:27:15.308Z,22.88
2022-08-23T09:28:15.284Z,22.91
2022-08-23T09:29:15.274Z,22.94
2022-08-23T09:30:15.257Z,22.96
2022-08-23T09:31:15.274Z,22.96
2022-08-23T09:32:15.235Z,22.87
2022-08-23T09:33:15.229Z,22.87
2022-08-23T09:34:15.208Z,22.88
2022-08-23T09:35:15.197Z,22.91
2022-08-23T09:36:15.187Z,22.90
2022-08-23T09:37:15.179Z,22.91
2022-08-23T09:38:15.162Z,22.99
2022-08-23T09:39:15.148Z,23.02
2022-08-23T09:40:16.306Z,23.02
2022-08-23T09:41:15.123Z,23.05
2022-08-23T09:42:15.114Z,23.02
2022-08-23T09:43:15.104Z,22.99
2022-08-23T09:44:16.264Z,22.99
2022-08-23T09:45:15.078Z,23.00
2022-08-23T09:46:15.122Z,23.02
2022-08-23T09:47:15.056Z,23.00
2022-08-23T09:48:15.036Z,22.88
2022-08-23T09:49:15.022Z,22.88
2022-08-23T09:50:15.013Z,22.85
2022-08-23T09:51:15.000Z,22.87
2022-08-23T09:52:21.938Z,22.85
2022-08-23T09:53:16.012Z,22.84
2022-08-23T09:54:15.845Z,22.88
2022-08-23T09:55:14.961Z,22.98
2022-08-23T09:56:14.942Z,23.02
2022-08-23T09:57:14.925Z,23.09
2022-08-23T09:58:14.917Z,23.20
2022-08-23T09:59:14.969Z,23.27
2022-08-23T10:00:14.983Z,23.27
2022-08-23T10:01:14.926Z,23.27
2022-08-23T10:02:14.947Z,23.24
2022-08-23T10:03:14.852Z,23.24
2022-08-23T10:04:14.930Z,23.13
2022-08-23T10:05:14.929Z,23.06
2022-08-23T10:06:14.819Z,23.06
2022-08-23T10:07:14.806Z,23.08
2022-08-23T10:08:14.794Z,23.10
2022-08-23T10:09:14.781Z,23.08
2022-08-23T10:10:14.854Z,23.09
2022-08-23T10:11:14.759Z,23.06
2022-08-23T10:12:14.744Z,23.06
2022-08-23T10:13:14.739Z,23.05
2022-08-23T10:14:14.721Z,23.05
2022-08-23T10:15:14.706Z,23.08
2022-08-23T10:16:14.850Z,23.08
2022-08-23T10:17:14.685Z,23.08
2022-08-23T10:18:14.669Z,23.05
2022-08-23T10:19:14.664Z,23.03
2022-08-23T10:20:14.698Z,23.00
2022-08-23T10:21:20.264Z,23.05
2022-08-23T10:22:15.649Z,23.09
2022-08-23T10:23:14.613Z,23.12
2022-08-23T10:24:14.603Z,23.15
2022-08-23T10:25:14.583Z,23.20
2022-08-23T10:26:14.573Z,23.24
2022-08-23T10:27:14.561Z,23.31
2022-08-23T10:28:14.547Z,23.39
2022-08-23T10:29:14.536Z,23.43
2022-08-23T10:30:14.522Z,23.41
2022-08-23T10:31:14.624Z,23.41
2022-08-23T10:32:14.505Z,23.40
2022-08-23T10:33:14.483Z,23.44
2022-08-23T10:34:14.474Z,23.43
2022-08-23T10:35:14.462Z,23.41
2022-08-23T10:36:14.449Z,23.40
2022-08-23T10:37:14.437Z,23.34
2022-08-23T10:38:14.421Z,23.37
2022-08-23T10:39:14.414Z,23.39
2022-08-23T10:40:14.560Z,23.48
2022-08-23T10:41:14.388Z,23.55
2022-08-23T10:42:14.371Z,23.58
2022-08-23T10:43:14.371Z,23.61
2022-08-23T10:44:14.346Z,23.61
2022-08-23T10:45:14.334Z,23.61
2022-08-23T10:46:14.382Z,23.59
2022-08-23T10:47:14.308Z,23.56
2022-08-23T10:48:14.296Z,23.46
2022-08-23T10:49:14.281Z,23.40
2022-08-23T10:50:14.269Z,23.34
2022-08-23T10:51:14.259Z,23.39
2022-08-23T10:52:14.243Z,23.36
2022-08-23T10:53:14.231Z,23.39
2022-08-23T10:54:14.220Z,23.36
2022-08-23T10:55:14.209Z,23.34
2022-08-23T10:56:14.206Z,23.39
2022-08-23T10:57:14.186Z,23.37
2022-08-23T10:58:14.173Z,23.37
2022-08-23T10:59:14.154Z,23.43
2022-08-23T11:00:14.142Z,23.44
2022-08-23T11:01:14.190Z,23.46
2022-08-23T11:02:14.163Z,23.48
2022-08-23T11:03:14.104Z,23.50
2022-08-23T11:04:14.097Z,23.47
2022-08-23T11:05:14.082Z,23.46
2022-08-23T11:06:14.070Z,23.48
2022-08-23T11:07:14.056Z,23.47
2022-08-23T11:08:14.048Z,23.46
2022-08-23T11:09:14.034Z,23.43
2022-08-23T11:10:16.278Z,23.41
2022-08-23T11:11:14.012Z,23.43
2022-08-23T11:12:13.995Z,23.44
2022-08-23T11:13:13.997Z,23.44
2022-08-23T11:14:13.974Z,23.47
2022-08-23T11:15:13.957Z,23.48
2022-08-23T11:16:14.032Z,23.48
2022-08-23T11:17:13.934Z,23.51
2022-08-23T11:18:13.930Z,23.54
2022-08-23T11:19:13.908Z,23.58
2022-08-23T11:20:13.899Z,23.58
2022-08-23T11:21:13.882Z,23.59
2022-08-23T11:22:13.870Z,23.62
2022-08-23T11:23:13.857Z,23.65
2022-08-23T11:24:13.848Z,23.66
2022-08-23T11:25:13.836Z,23.66
2022-08-23T11:26:13.822Z,23.58
2022-08-23T11:27:13.810Z,23.61
2022-08-23T11:28:13.796Z,23.61
2022-08-23T11:29:13.781Z,23.63
2022-08-23T11:30:13.772Z,23.66
2022-08-23T11:31:13.795Z,23.69
2022-08-23T11:32:13.750Z,23.69
2022-08-23T11:33:14.572Z,23.68
2022-08-23T11:34:13.721Z,23.74
2022-08-23T11:35:13.709Z,23.73
2022-08-23T11:36:13.696Z,23.73
2022-08-23T11:37:13.684Z,23.65
2022-08-23T11:38:13.676Z,23.63
2022-08-23T11:39:13.775Z,23.63
2022-08-23T11:40:17.976Z,23.63
2022-08-23T11:41:13.637Z,23.68
2022-08-23T11:42:13.621Z,23.69
2022-08-23T11:43:13.605Z,23.73
2022-08-23T11:44:13.595Z,23.76
2022-08-23T11:45:13.583Z,23.81
2022-08-23T11:46:13.604Z,23.87
2022-08-23T11:47:13.558Z,23.92
2022-08-23T11:48:13.549Z,23.95
2022-08-23T11:49:13.533Z,23.98
2022-08-23T11:50:13.527Z,23.99
2022-08-23T11:51:13.511Z,23.91
2022-08-23T11:52:13.498Z,23.87
2022-08-23T11:53:13.486Z,23.81
2022-08-23T11:54:13.485Z,23.80
2022-08-23T11:55:13.455Z,23.78
2022-08-23T11:56:13.442Z,23.73
2022-08-23T11:57:13.436Z,23.74
2022-08-23T11:58:13.417Z,23.78
2022-08-23T11:59:13.404Z,23.84
2022-08-23T12:00:13.402Z,23.83
2022-08-23T12:01:13.376Z,23.78
2022-08-23T12:02:16.042Z,23.77
2022-08-23T12:03:13.447Z,23.80
2022-08-23T12:04:13.342Z,23.81
2022-08-23T12:05:13.332Z,23.80
2022-08-23T12:06:13.317Z,23.81
2022-08-23T12:07:13.310Z,23.81
2022-08-23T12:08:13.289Z,23.83
2022-08-23T12:09:13.287Z,23.86
2022-08-23T12:10:13.268Z,23.91
2022-08-23T12:11:13.259Z,23.96
2022-08-23T12:12:13.238Z,23.99
2022-08-23T12:13:13.227Z,24.11
2022-08-23T12:14:13.210Z,24.18
2022-08-23T12:15:13.207Z,24.21
2022-08-23T12:16:16.637Z,24.18
2022-08-23T12:17:13.174Z,24.16
2022-08-23T12:18:13.161Z,24.14
2022-08-23T12:19:13.780Z,24.14
2022-08-23T12:20:17.194Z,24.17
2022-08-23T12:21:13.123Z,24.18
2022-08-23T12:22:13.112Z,24.20
2022-08-23T12:23:13.097Z,24.21
2022-08-23T12:24:13.085Z,24.20
2022-08-23T12:25:13.985Z,24.18
2022-08-23T12:26:13.059Z,24.20
2022-08-23T12:27:13.045Z,24.18
2022-08-23T12:28:13.046Z,24.26
2022-08-23T12:29:13.021Z,24.35
2022-08-23T12:30:13.016Z,24.38
2022-08-23T12:31:13.599Z,24.39
2022-08-23T12:32:12.985Z,24.38
2022-08-23T12:33:12.971Z,24.33
2022-08-23T12:34:12.968Z,24.33
2022-08-23T12:35:12.945Z,24.33
2022-08-23T12:36:16.569Z,24.32
2022-08-23T12:37:12.925Z,24.33
2022-08-23T12:38:12.910Z,24.35
2022-08-23T12:39:12.900Z,24.36
2022-08-23T12:40:12.930Z,24.36
2022-08-23T12:41:12.885Z,24.30
2022-08-23T12:42:12.865Z,24.29
2022-08-23T12:43:17.726Z,24.32
2022-08-23T12:44:13.873Z,24.35
2022-08-23T12:45:12.823Z,24.42
2022-08-23T12:46:12.904Z,24.50
2022-08-23T12:47:12.801Z,24.50
2022-08-23T12:48:12.793Z,24.53
2022-08-23T12:49:12.773Z,24.55
2022-08-23T12:50:12.769Z,24.58
2022-08-23T12:51:12.752Z,24.57
2022-08-23T12:52:12.736Z,24.53
2022-08-23T12:53:12.731Z,24.53
2022-08-23T12:54:12.711Z,24.61